Time;durP1;ratioP1;P1;durP2;ratioP2;P2;SDS_P1;SDS_P2;PMS_P1;PMS_P2;Temp;Humidity;BMP_temperature;BMP_pressure;BME280_temperature;BME280_humidity;BME280_pressure;Samples;Min_cycle;Max_cycle;Signal;HPM_P1;HPM_P2
2023/09/04 00:02:03;;;;;;;14.18;3.80;;;;;;;25.10;50.78;99133.25;5090379;28;20028;-45
2023/09/04 00:04:28;;;;;;;26.13;6.03;;;;;;;25.02;51.00;99128.50;5090192;28;20047;-45
2023/09/04 00:06:54;;;;;;;13.70;3.97;;;;;;;25.03;50.87;99127.44;5091436;28;20478;-45
2023/09/04 00:09:20;;;;;;;26.23;9.40;;;;;;;25.11;50.72;99136.72;5091431;28;20052;-45
2023/09/04 00:11:45;;;;;;;15.05;4.65;;;;;;;25.32;50.24;99129.28;5090127;28;20024;-45
2023/09/04 00:14:12;;;;;;;19.67;4.82;;;;;;;25.61;49.18;99128.38;5091177;28;20056;-45
2023/09/04 00:16:38;;;;;;;8.02;3.55;;;;;;;25.80;48.71;99125.72;5091344;28;20389;-45
2023/09/04 00:19:03;;;;;;;24.40;5.13;;;;;;;25.89;48.56;99126.66;5093433;28;20398;-45
2023/09/04 00:21:29;;;;;;;12.95;3.85;;;;;;;26.10;47.96;99132.59;5095172;28;20374;-45
2023/09/04 00:23:55;;;;;;;22.70;5.38;;;;;;;26.25;47.71;99126.97;5095079;28;20028;-45
2023/09/04 00:26:21;;;;;;;15.95;4.40;;;;;;;26.46;47.04;99127.44;5095424;28;20027;-45
2023/09/04 00:28:47;;;;;;;7.43;3.45;;;;;;;26.59;45.86;99117.81;5076856;28;20024;-45
2023/09/04 00:31:13;;;;;;;6.13;2.90;;;;;;;26.21;45.63;99120.56;5094911;28;20027;-45
2023/09/04 00:33:38;;;;;;;22.50;4.10;;;;;;;25.63;46.98;99124.31;5093921;28;20489;-45
2023/09/04 00:36:04;;;;;;;15.50;4.18;;;;;;;25.43;47.83;99127.25;5093512;28;20107;-45
2023/09/04 00:38:30;;;;;;;14.38;3.80;;;;;;;25.38;48.76;99127.34;5093567;28;20391;-45
2023/09/04 00:40:56;;;;;;;13.07;3.97;;;;;;;25.44;49.11;99123.50;5094748;28;20020;-45
2023/09/04 00:43:21;;;;;;;18.92;4.00;;;;;;;25.66;48.86;99121.06;5094686;28;20367;-45
2023/09/04 00:45:47;;;;;;;11.18;3.67;;;;;;;25.82;48.03;99116.28;5094698;28;20044;-45
2023/09/04 00:48:13;;;;;;;11.35;4.10;;;;;;;25.91;47.77;99111.06;5094798;28;20032;-45
2023/09/04 00:50:41;;;;;;;11.98;3.60;;;;;;;26.04;47.56;99110.34;5094593;28;20560;-45
2023/09/04 00:53:09;;;;;;;55.25;22.42;;;;;;;25.93;47.90;99106.19;5094546;28;20047;-45
2023/09/04 00:55:36;;;;;;;13.68;6.43;;;;;;;26.04;47.32;99093.41;5094550;28;20031;-45
2023/09/04 00:58:02;;;;;;;19.17;5.57;;;;;;;26.13;47.56;99101.59;5093147;28;20165;-45
2023/09/04 01:00:28;;;;;;;12.45;4.35;;;;;;;26.30;47.31;99093.81;5094646;28;20031;-46
2023/09/04 01:02:56;;;;;;;3.95;2.33;;;;;;;26.33;45.71;99098.59;5094281;28;20024;-45
2023/09/04 01:05:21;;;;;;;20.27;4.95;;;;;;;25.94;46.72;99101.59;5094306;28;20020;-45
2023/09/04 01:07:48;;;;;;;10.65;3.67;;;;;;;25.81;47.49;99097.75;5094503;28;20517;-45
2023/09/04 01:10:14;;;;;;;15.50;3.88;;;;;;;25.80;47.66;99104.22;5094153;28;20039;-45
2023/09/04 01:13:01;;;;;;;8.63;2.90;;;;;;;25.87;47.19;99107.31;5094104;28;20028;-45
2023/09/04 01:15:28;;;;;;;5.72;2.88;;;;;;;25.54;47.22;99099.19;5092817;28;20047;-45
2023/09/04 01:17:54;;;;;;;6.47;2.50;;;;;;;25.31;47.56;99096.25;5094061;28;20024;-45
2023/09/04 01:20:29;;;;;;;7.75;2.50;;;;;;;24.84;47.89;99103.16;5094003;28;20027;-45
2023/09/04 01:22:59;;;;;;;14.75;3.67;;;;;;;24.66;50.03;99111.94;5092702;28;20178;-45
2023/09/04 01:25:39;;;;;;;10.73;3.85;;;;;;;24.87;49.48;99107.16;5093945;28;20504;-45
2023/09/04 01:28:33;;;;;;;10.38;3.60;;;;;;;24.79;49.66;99113.16;5093966;28;20103;-45
2023/09/04 01:31:13;;;;;;;11.05;4.00;;;;;;;24.80;50.18;99115.56;5084072;28;20514;-45
2023/09/04 01:33:47;;;;;;;164.43;69.15;;;;;;;24.98;49.73;99110.56;5092481;28;20039;-44
2023/09/04 01:36:16;;;;;;;21.83;7.15;;;;;;;25.17;49.09;99097.97;5091906;28;20036;-45
2023/09/04 01:38:44;;;;;;;10.45;3.70;;;;;;;25.12;49.06;99098.06;5092379;28;20028;-45
2023/09/04 01:41:10;;;;;;;12.63;4.28;;;;;;;25.01;49.82;99101.91;5075499;28;20028;-45
2023/09/04 01:43:36;;;;;;;15.80;3.92;;;;;;;24.64;50.74;99098.81;5092222;28;20115;-45
2023/09/04 01:46:02;;;;;;;9.35;2.97;;;;;;;24.22;51.59;99104.78;5093499;28;20106;-45
2023/09/04 01:48:27;;;;;;;9.35;3.10;;;;;;;23.86;52.10;99105.00;5093513;28;20040;-45
2023/09/04 01:50:54;;;;;;;18.55;4.50;;;;;;;23.59;53.03;99095.47;5092064;28;20070;-45
2023/09/04 01:53:20;;;;;;;9.55;3.33;;;;;;;23.43;53.62;99097.44;5093389;28;20024;-44
2023/09/04 01:55:45;;;;;;;12.75;3.70;;;;;;;23.27;54.22;99099.38;5092013;28;20119;-45
2023/09/04 01:58:11;;;;;;;11.70;4.25;;;;;;;23.26;55.08;99099.63;5093269;28;20138;-45
2023/09/04 02:00:37;;;;;;;14.63;3.92;;;;;;;23.38;54.59;99099.31;5093178;28;20020;-45
2023/09/04 02:03:03;;;;;;;27.98;5.47;;;;;;;23.36;55.27;99093.44;5093072;28;20102;-44
2023/09/04 02:05:29;;;;;;;15.23;4.47;;;;;;;23.67;54.83;99094.09;5091802;28;20016;-44
2023/09/04 02:07:55;;;;;;;9.10;3.05;;;;;;;23.93;53.92;99081.38;5093106;28;20032;-45
2023/09/04 02:10:23;;;;;;;15.05;3.92;;;;;;;23.97;53.28;99079.75;5093079;28;20020;-44
2023/09/04 02:12:49;;;;;;;16.20;4.65;;;;;;;23.79;53.15;99070.47;5092918;28;20485;-45
2023/09/04 02:15:16;;;;;;;16.90;4.25;;;;;;;23.84;54.52;99069.63;5092697;28;20101;-45
2023/09/04 02:17:41;;;;;;;18.00;4.35;;;;;;;24.43;53.52;99065.97;5092852;28;20043;-45
2023/09/04 02:20:07;;;;;;;18.65;4.45;;;;;;;24.94;51.97;99066.56;5092853;28;20482;-45
2023/09/04 02:22:33;;;;;;;14.90;4.07;;;;;;;25.33;50.61;99061.00;5092971;28;20112;-45
2023/09/04 02:24:59;;;;;;;23.50;5.40;;;;;;;25.47;49.56;99059.25;5091753;28;20500;-45
2023/09/04 02:27:24;;;;;;;26.58;5.18;;;;;;;25.52;49.75;99063.72;5092722;28;20031;-45
2023/09/04 02:29:50;;;;;;;17.55;4.95;;;;;;;25.78;49.07;99063.38;5092673;28;20458;-45
2023/09/04 02:32:16;;;;;;;24.30;3.85;;;;;;;25.93;48.49;99055.09;5091341;28;20494;-45
2023/09/04 02:34:41;;;;;;;21.10;4.35;;;;;;;25.99;47.58;99062.00;5092509;28;20052;-45
2023/09/04 02:37:07;;;;;;;13.02;4.32;;;;;;;26.07;47.78;99065.91;5091191;28;20032;-45
2023/09/04 02:39:33;;;;;;;23.27;4.90;;;;;;;26.05;47.60;99065.41;5092554;28;20478;-45
2023/09/04 02:41:58;;;;;;;20.30;4.40;;;;;;;25.49;47.69;99065.13;5091391;28;20024;-45
2023/09/04 02:44:24;;;;;;;24.27;4.65;;;;;;;24.70;49.64;99065.47;5091676;28;20032;-45
2023/09/04 02:46:50;;;;;;;14.57;3.70;;;;;;;24.29;51.77;99062.34;5092393;28;20490;-45
2023/09/04 02:49:16;;;;;;;24.52;6.05;;;;;;;24.14;52.26;99065.94;5091032;28;20407;-45
2023/09/04 02:51:41;;;;;;;20.88;4.88;;;;;;;24.30;52.41;99070.09;5092304;28;20362;-44
2023/09/04 02:54:07;;;;;;;10.82;3.67;;;;;;;24.59;51.56;99063.97;5090952;28;20495;-45
2023/09/04 02:56:33;;;;;;;16.20;4.03;;;;;;;24.48;50.81;99068.59;5092176;28;20020;-45
2023/09/04 02:58:58;;;;;;;8.82;3.08;;;;;;;24.02;51.83;99062.81;5092276;28;20051;-45
2023/09/04 03:01:24;;;;;;;18.05;5.75;;;;;;;23.75;53.18;99072.09;5090880;28;20489;-45
2023/09/04 03:03:50;;;;;;;23.13;6.45;;;;;;;23.80;53.56;99071.28;5092006;28;20482;-45
2023/09/04 03:06:15;;;;;;;25.08;6.93;;;;;;;23.78;53.80;99065.41;5092141;28;20099;-44
2023/09/04 03:08:41;;;;;;;10.85;3.92;;;;;;;23.92;53.53;99061.00;5091988;28;20024;-45
2023/09/04 03:11:10;;;;;;;15.75;3.83;;;;;;;23.77;53.16;99078.00;5092012;28;20128;-45
2023/09/04 03:13:39;;;;;;;8.45;3.92;;;;;;;23.32;53.86;99075.25;5091727;28;20130;-45
2023/09/04 03:16:07;;;;;;;13.52;3.72;;;;;;;22.89;54.66;99063.31;5092246;28;20077;-45
2023/09/04 03:18:34;;;;;;;11.38;4.50;;;;;;;22.58;55.81;99066.06;5092212;28;20024;-44
2023/09/04 03:21:01;;;;;;;11.02;4.93;;;;;;;22.46;57.16;99062.88;5091929;28;20021;-45
2023/09/04 03:23:27;;;;;;;13.00;4.03;;;;;;;22.55;56.60;99066.59;5091833;28;20482;-45
2023/09/04 03:25:52;;;;;;;15.23;3.67;;;;;;;22.31;56.63;99074.38;5091852;28;20020;-44
2023/09/04 03:28:18;;;;;;;5.60;3.33;;;;;;;22.19;56.92;99074.59;5091906;28;20496;-44
2023/09/04 03:30:44;;;;;;;7.07;3.00;;;;;;;22.11;57.38;99075.13;5090750;28;20059;-44
2023/09/04 03:33:09;;;;;;;22.75;4.05;;;;;;;21.93;57.88;99076.44;5090525;28;20028;-45
2023/09/04 03:35:35;;;;;;;32.50;6.30;;;;;;;22.22;58.89;99068.72;5090462;28;20024;-45
2023/09/04 03:38:01;;;;;;;21.42;4.82;;;;;;;22.70;58.24;99073.81;5090454;28;20028;-44
2023/09/04 03:40:29;;;;;;;12.13;3.55;;;;;;;23.22;56.87;99069.94;5091771;28;20070;-45
2023/09/04 03:42:55;;;;;;;20.45;4.40;;;;;;;23.66;55.56;99063.03;5090372;28;20020;-45
2023/09/04 03:45:21;;;;;;;23.67;5.53;;;;;;;23.89;54.78;99066.94;5091671;28;20513;-45
2023/09/04 03:47:48;;;;;;;10.07;3.42;;;;;;;23.99;54.31;99061.50;5091602;28;20031;-45
2023/09/04 03:50:14;;;;;;;27.00;5.05;;;;;;;23.99;54.12;99061.50;5090340;28;20020;-44
2023/09/04 03:52:42;;;;;;;21.65;5.00;;;;;;;24.13;54.02;99064.34;5091702;28;20513;-44
2023/09/04 03:55:10;;;;;;;32.75;5.18;;;;;;;24.35;53.37;99079.16;5095420;28;20111;-44
2023/09/04 03:57:36;;;;;;;10.60;4.20;;;;;;;24.37;53.07;99071.66;5095617;28;20031;-45
2023/09/04 04:00:10;;;;;;;28.25;5.28;;;;;;;24.28;53.36;99079.50;5095538;28;20429;-45
2023/09/04 04:02:38;;;;;;;15.70;5.03;;;;;;;24.30;53.25;99072.78;5095532;28;20030;-45
2023/09/04 04:05:04;;;;;;;27.92;5.40;;;;;;;24.34;53.09;99073.00;5095470;28;20512;-45
2023/09/04 04:07:30;;;;;;;11.70;4.55;;;;;;;24.40;52.94;99077.25;5095430;28;20023;-45
2023/09/04 04:09:56;;;;;;;15.85;3.70;;;;;;;24.37;52.50;99077.00;5095428;28;20449;-45
2023/09/04 04:12:24;;;;;;;10.52;4.10;;;;;;;24.06;53.15;99072.69;5095351;28;20028;-45
2023/09/04 04:14:54;;;;;;;20.08;4.47;;;;;;;23.98;53.75;99073.28;5095115;28;20072;-45
2023/09/04 04:17:19;;;;;;;19.15;4.28;;;;;;;23.89;53.60;99067.72;5095192;28;20020;-45
2023/09/04 04:19:45;;;;;;;9.68;3.85;;;;;;;23.44;53.61;99066.09;5060375;28;20024;-45
2023/09/04 04:22:11;;;;;;;8.98;3.95;;;;;;;22.89;54.93;99082.84;5095299;28;20386;-45
2023/09/04 04:24:37;;;;;;;19.60;3.83;;;;;;;22.49;56.17;99078.38;5093748;28;20107;-44
2023/09/04 04:27:02;;;;;;;12.05;3.83;;;;;;;22.17;57.55;99076.75;5093748;28;20024;-45
2023/09/04 04:29:28;;;;;;;20.38;4.78;;;;;;;22.06;58.09;99085.84;5095021;28;20107;-45
2023/09/04 04:31:54;;;;;;;14.40;3.72;;;;;;;21.90;58.65;99080.47;5093605;28;20119;-44
2023/09/04 04:34:19;;;;;;;13.85;3.80;;;;;;;21.69;58.98;99084.16;5093731;28;20102;-44
2023/09/04 04:36:45;;;;;;;14.95;4.88;;;;;;;21.77;60.67;99080.97;5094851;28;20031;-44
2023/09/04 04:39:10;;;;;;;11.50;4.28;;;;;;;22.24;59.98;99088.00;5093534;28;20039;-44
2023/09/04 04:41:37;;;;;;;19.83;4.07;;;;;;;22.33;58.51;99085.59;5094752;28;20032;-45
2023/09/04 04:44:03;;;;;;;17.23;5.10;;;;;;;22.01;59.07;99093.84;5094545;28;20024;-44
2023/09/04 04:46:29;;;;;;;12.55;3.92;;;;;;;21.70;59.78;99099.13;5094687;28;20027;-44
2023/09/04 04:48:55;;;;;;;10.77;4.50;;;;;;;21.44;60.29;99092.91;5094650;28;20024;-44
2023/09/04 04:51:21;;;;;;;19.85;4.93;;;;;;;21.24;61.13;99091.72;5093283;28;20027;-45
2023/09/04 04:53:46;;;;;;;28.23;5.53;;;;;;;21.27;62.00;99096.56;5094547;28;20099;-44
2023/09/04 04:56:12;;;;;;;15.40;4.53;;;;;;;21.46;61.20;99099.59;5094506;28;20016;-44
2023/09/04 04:58:38;;;;;;;11.90;3.92;;;;;;;21.44;60.95;99098.25;5094429;28;20040;-44
2023/09/04 05:01:06;;;;;;;17.92;4.88;;;;;;;21.34;61.39;99104.31;5093097;28;20024;-44
2023/09/04 05:03:32;;;;;;;28.13;5.88;;;;;;;21.52;61.74;99103.06;5094235;28;20066;-44
2023/09/04 05:05:58;;;;;;;17.60;5.10;;;;;;;21.51;61.22;99107.63;5093333;28;20020;-44
2023/09/04 05:08:24;;;;;;;35.22;5.97;;;;;;;21.38;61.44;99108.06;5093019;28;20032;-44
2023/09/04 05:11:09;;;;;;;17.30;5.50;;;;;;;21.30;62.11;99108.56;5092950;28;20111;-44
2023/09/04 05:13:35;;;;;;;35.75;6.03;;;;;;;21.34;62.17;99107.78;5092241;28;20048;-44
2023/09/04 05:16:04;;;;;;;39.90;8.63;;;;;;;21.63;62.06;99114.59;5094199;28;20016;-44
2023/09/04 05:18:30;;;;;;;36.08;6.65;;;;;;;21.96;61.15;99108.00;5094166;28;20564;-44
2023/09/04 05:20:56;;;;;;;14.27;5.65;;;;;;;22.22;60.52;99114.19;5094125;28;20024;-44
2023/09/04 05:23:22;;;;;;;23.88;6.75;;;;;;;22.65;60.14;99116.63;5092658;28;20111;-44
2023/09/04 05:25:49;;;;;;;27.33;5.97;;;;;;;22.94;58.48;99114.97;5094478;28;20028;-45
2023/09/04 05:28:15;;;;;;;20.23;5.55;;;;;;;23.09;57.81;99119.50;5094171;28;20024;-45
2023/09/04 05:30:40;;;;;;;23.55;4.95;;;;;;;23.45;57.12;99114.03;5092544;28;20390;-45
2023/09/04 05:33:06;;;;;;;20.60;4.43;;;;;;;23.65;55.92;99115.81;5093869;28;20024;-45
2023/09/04 05:35:32;;;;;;;47.10;7.07;;;;;;;23.57;55.33;99113.72;5092429;28;20451;-45
2023/09/04 05:37:58;;;;;;;32.42;6.43;;;;;;;23.56;55.86;99120.13;5093754;28;20020;-44
2023/09/04 05:40:24;;;;;;;18.20;6.20;;;;;;;23.77;55.63;99112.03;5093709;28;20490;-45
2023/09/04 05:42:50;;;;;;;59.90;8.45;;;;;;;23.93;54.95;99117.03;5058751;28;20020;-45
2023/09/04 05:45:16;;;;;;;67.43;9.02;;;;;;;24.03;54.28;99115.38;5093561;28;20028;-45
2023/09/04 05:47:42;;;;;;;79.30;8.30;;;;;;;24.05;54.35;99108.66;5093532;28;20486;-45
2023/09/04 05:50:09;;;;;;;83.82;9.27;;;;;;;24.18;54.13;99109.88;5093475;28;20020;-45
2023/09/04 05:52:36;;;;;;;49.70;7.70;;;;;;;24.46;53.46;99119.06;5093668;28;20055;-44
2023/09/04 05:55:03;;;;;;;122.60;13.32;;;;;;;25.05;52.29;99109.16;5093282;28;20051;-45
2023/09/04 05:57:28;;;;;;;78.88;9.82;;;;;;;25.94;50.22;99110.50;5093274;28;20479;-45
2023/09/04 05:59:54;;;;;;;73.78;7.70;;;;;;;26.73;48.09;99112.47;5093271;28;20024;-45
2023/09/04 06:02:20;;;;;;;52.15;7.22;;;;;;;27.36;45.82;99116.41;5091817;28;20027;-45
2023/09/04 06:04:46;;;;;;;51.80;8.45;;;;;;;27.87;44.65;99114.56;5092110;28;20027;-45
2023/09/04 06:07:14;;;;;;;55.33;7.13;;;;;;;28.18;43.87;99116.56;5093140;28;20020;-45
2023/09/04 06:09:40;;;;;;;92.57;11.82;;;;;;;28.22;43.35;99122.94;5075232;28;20032;-45
2023/09/04 06:12:10;;;;;;;122.47;14.13;;;;;;;28.15;43.44;99117.16;5093012;28;20017;-45
2023/09/04 06:14:36;;;;;;;129.25;12.07;;;;;;;28.18;43.29;99127.34;5092803;28;20117;-45
2023/09/04 06:17:01;;;;;;;94.72;12.48;;;;;;;28.48;42.71;99123.91;5091443;28;20497;-45
2023/09/04 06:19:30;;;;;;;117.20;12.40;;;;;;;28.90;42.17;99120.97;5092857;28;20028;-45
2023/09/04 06:21:57;;;;;;;54.70;8.45;;;;;;;29.17;41.38;99119.97;5092861;28;20023;-45
2023/09/04 06:24:22;;;;;;;110.43;12.02;;;;;;;29.39;40.59;99121.00;5091378;28;20024;-45
2023/09/04 06:26:48;;;;;;;104.53;11.82;;;;;;;29.46;40.61;99119.44;5092710;28;20016;-45
2023/09/04 06:29:16;;;;;;;142.80;14.07;;;;;;;29.79;40.18;99123.66;5092776;28;20035;-45
2023/09/04 06:31:42;;;;;;;95.07;9.82;;;;;;;30.26;39.43;99126.50;5092621;28;20069;-45
2023/09/04 06:34:08;;;;;;;77.68;9.43;;;;;;;30.61;38.53;99126.47;5092584;28;20036;-45
2023/09/04 06:36:35;;;;;;;63.13;9.00;;;;;;;31.01;37.67;99129.72;5091220;28;20107;-45
2023/09/04 06:39:03;;;;;;;87.20;9.93;;;;;;;31.25;37.12;99134.53;5092527;28;20050;-45
2023/09/04 06:41:31;;;;;;;55.20;8.40;;;;;;;31.29;37.41;99136.56;5092405;28;20027;-45
2023/09/04 06:43:57;;;;;;;60.42;7.85;;;;;;;31.90;36.48;99128.88;5092347;28;20021;-45
2023/09/04 06:46:23;;;;;;;32.63;6.57;;;;;;;32.59;35.17;99124.75;5091093;28;20031;-45
2023/09/04 06:48:49;;;;;;;48.42;7.47;;;;;;;32.74;34.83;99126.03;5092623;28;20039;-45
2023/09/04 06:51:16;;;;;;;55.78;7.57;;;;;;;32.96;33.68;99121.28;5092310;28;20024;-45
2023/09/04 06:53:42;;;;;;;34.08;6.85;;;;;;;33.23;34.09;99126.09;5092192;28;20024;-45
2023/09/04 06:56:08;;;;;;;34.33;6.55;;;;;;;34.01;32.58;99121.41;5092290;28;20513;-45
2023/09/04 06:58:33;;;;;;;24.52;4.93;;;;;;;34.81;31.46;99125.13;5092257;28;20032;-45
2023/09/04 07:01:03;;;;;;;43.67;8.50;;;;;;;35.67;30.12;99122.84;5090905;28;20016;-45
2023/09/04 07:03:29;;;;;;;47.28;7.88;;;;;;;36.13;29.46;99120.25;5092123;28;20393;-45
2023/09/04 07:05:55;;;;;;;31.45;7.15;;;;;;;36.21;29.26;99126.66;5092161;28;20103;-45
2023/09/04 07:08:21;;;;;;;27.33;5.75;;;;;;;36.37;29.11;99119.16;5090807;28;20027;-46
2023/09/04 07:10:48;;;;;;;31.13;6.07;;;;;;;36.53;28.68;99122.56;5092352;28;20118;-45
2023/09/04 07:13:14;;;;;;;32.25;5.70;;;;;;;36.71;28.60;99119.38;5091801;28;20038;-45
2023/09/04 07:15:44;;;;;;;31.55;5.13;;;;;;;37.21;27.87;99122.13;5091122;28;20031;-46
2023/09/04 07:18:10;;;;;;;21.00;4.65;;;;;;;37.73;27.17;99126.81;5092273;28;20107;-45
2023/09/04 07:20:36;;;;;;;41.15;7.80;;;;;;;38.31;26.81;99121.97;5091932;28;20031;-46
2023/09/04 07:23:01;;;;;;;55.70;9.63;;;;;;;38.71;26.16;99123.16;5090527;28;20066;-45
2023/09/04 07:25:27;;;;;;;30.80;6.50;;;;;;;38.40;26.48;99133.44;5092167;28;20059;-46
2023/09/04 07:27:53;;;;;;;27.08;5.20;;;;;;;38.54;26.73;99138.31;5091577;28;20106;-46
2023/09/04 07:30:18;;;;;;;34.85;5.97;;;;;;;38.73;25.91;99132.59;5090544;28;20481;-46
2023/09/04 07:32:44;;;;;;;24.85;4.57;;;;;;;39.04;25.59;99137.94;5090454;28;20020;-46
2023/09/04 07:35:10;;;;;;;46.08;7.85;;;;;;;39.24;25.39;99130.22;5091718;28;20499;-45
2023/09/04 07:37:36;;;;;;;33.80;4.35;;;;;;;39.14;25.51;99137.25;5091777;28;20032;-46
2023/09/04 07:40:05;;;;;;;21.35;5.60;;;;;;;38.74;25.92;99136.13;5090442;28;20112;-46
2023/09/04 07:42:31;;;;;;;37.10;7.07;;;;;;;38.42;26.53;99125.63;5091633;28;20027;-46
2023/09/04 07:44:57;;;;;;;40.97;7.32;;;;;;;37.08;29.36;99140.69;5090418;28;20028;-46
2023/09/04 07:47:23;;;;;;;35.35;6.93;;;;;;;36.51;29.67;99135.81;5090339;28;20027;-46
2023/09/04 07:49:50;;;;;;;19.30;5.10;;;;;;;37.14;28.77;99136.50;5091599;28;20111;-46
2023/09/04 07:52:16;;;;;;;27.58;7.55;;;;;;;37.61;28.23;99124.31;5091598;28;20496;-46
2023/09/04 07:54:42;;;;;;;15.85;4.95;;;;;;;38.05;28.38;99131.88;5091617;28;20020;-46
2023/09/04 07:57:08;;;;;;;36.58;6.00;;;;;;;38.60;27.36;99125.00;5091554;28;20020;-46
2023/09/04 07:59:34;;;;;;;21.35;5.20;;;;;;;38.90;26.56;99136.66;5090215;28;20107;-48
2023/09/04 08:02:00;;;;;;;23.92;7.18;;;;;;;39.17;26.21;99132.94;5090242;28;20024;-47
2023/09/04 08:04:25;;;;;;;54.97;9.63;;;;;;;39.28;26.29;99123.63;5090172;28;20032;-48
2023/09/04 08:06:51;;;;;;;36.88;6.25;;;;;;;39.46;26.09;99125.69;5090195;28;20108;-48
2023/09/04 08:09:17;;;;;;;59.20;7.05;;;;;;;39.87;25.30;99120.81;5091740;28;20024;-48
2023/09/04 08:11:43;;;;;;;23.73;4.38;;;;;;;40.23;24.54;99123.66;5091387;28;20509;-48
2023/09/04 08:14:08;;;;;;;24.42;5.05;;;;;;;40.35;24.22;99128.03;5091157;28;20083;-48
2023/09/04 08:16:34;;;;;;;7.75;2.70;;;;;;;39.36;23.47;99132.66;5091345;28;20448;-48
2023/09/04 08:19:00;;;;;;;22.67;5.22;;;;;;;38.88;24.61;99124.50;5091648;28;20111;-48
2023/09/04 08:21:25;;;;;;;27.13;4.28;;;;;;;38.79;24.73;99132.25;5090047;28;20024;-47
2023/09/04 08:23:51;;;;;;;3.03;1.75;;;;;;;38.78;24.49;99125.16;5091338;28;20024;-48
2023/09/04 08:26:17;;;;;;;7.05;2.55;;;;;;;38.98;24.37;99132.03;5090306;28;20490;-47
2023/09/04 08:28:43;;;;;;;13.27;3.60;;;;;;;38.58;24.88;99124.59;5090330;28;20031;-48
2023/09/04 08:31:09;;;;;;;19.55;5.53;;;;;;;38.69;25.17;99125.50;5091493;28;20021;-48
2023/09/04 08:33:35;;;;;;;10.80;4.03;;;;;;;39.24;24.58;99124.75;5089984;28;20052;-48
2023/09/04 08:36:01;;;;;;;4.82;2.33;;;;;;;39.09;23.77;99119.16;5091272;28;20059;-48
2023/09/04 08:38:27;;;;;;;11.88;3.40;;;;;;;39.29;24.36;99121.66;5091173;28;20021;-48
2023/09/04 08:40:55;;;;;;;7.93;3.22;;;;;;;38.89;24.07;99121.34;5091476;28;20111;-48
2023/09/04 08:43:24;;;;;;;26.73;4.25;;;;;;;38.59;24.94;99128.94;5094680;28;20053;-48
2023/09/04 08:45:51;;;;;;;5.18;2.83;;;;;;;39.26;24.24;99131.44;5094720;28;20056;-47
2023/09/04 08:48:21;;;;;;;52.67;18.15;;;;;;;39.76;23.82;99119.94;5094611;28;20016;-48
2023/09/04 08:50:49;;;;;;;15.68;4.95;;;;;;;40.10;23.63;99117.72;5094538;28;20020;-48
2023/09/04 08:53:16;;;;;;;13.48;3.83;;;;;;;40.27;23.09;99118.94;5094572;28;20106;-48
2023/09/04 08:55:41;;;;;;;12.10;2.42;;;;;;;40.00;23.06;99125.94;5093359;28;20027;-48
2023/09/04 08:58:08;;;;;;;3.05;2.20;;;;;;;39.66;22.99;99116.00;5093287;28;20028;-48
2023/09/04 09:00:35;;;;;;;4.82;2.75;;;;;;;38.80;24.58;99125.56;5094331;28;20023;-48
2023/09/04 09:03:02;;;;;;;4.47;2.28;;;;;;;38.20;24.65;99119.13;5094361;28;20016;-48
2023/09/04 09:05:29;;;;;;;14.25;3.58;;;;;;;37.80;25.05;99119.84;5094578;28;20031;-48
2023/09/04 09:07:55;;;;;;;3.33;2.40;;;;;;;37.29;25.88;99123.81;5094559;28;20067;-48
2023/09/04 09:10:22;;;;;;;4.38;2.70;;;;;;;36.85;26.21;99113.38;5094251;28;20507;-48
2023/09/04 09:12:48;;;;;;;8.98;2.67;;;;;;;36.68;27.29;99109.94;5094232;28;20024;-45
2023/09/04 09:15:17;;;;;;;6.38;2.35;;;;;;;37.32;26.22;99112.91;5093876;28;20048;-45
2023/09/04 09:17:54;;;;;;;7.30;2.63;;;;;;;37.70;25.64;99113.06;5094090;28;20077;-45
2023/09/04 09:20:49;;;;;;;9.63;2.80;;;;;;;38.26;25.43;99097.66;5094115;28;20020;-45
2023/09/04 09:23:14;;;;;;;9.07;3.05;;;;;;;38.24;25.13;99110.97;5075346;28;20123;-45
2023/09/04 09:25:40;;;;;;;5.13;2.60;;;;;;;38.08;25.38;99109.22;5093951;28;20103;-48
2023/09/04 09:28:07;;;;;;;6.38;2.60;;;;;;;37.92;25.95;99100.41;5093946;28;20074;-48
2023/09/04 09:30:37;;;;;;;11.13;2.42;;;;;;;37.76;25.73;99104.13;5093866;28;20031;-48
2023/09/04 09:33:07;;;;;;;6.88;3.20;;;;;;;37.94;25.58;99098.84;5093881;28;20113;-48
2023/09/04 09:35:33;;;;;;;5.45;2.30;;;;;;;38.03;25.49;99100.50;5093714;28;20540;-48
2023/09/04 09:38:01;;;;;;;9.45;3.30;;;;;;;37.89;26.19;99092.91;5092426;28;20118;-47
2023/09/04 09:40:27;;;;;;;9.38;3.85;;;;;;;37.81;26.08;99099.47;5092295;28;20024;-47
2023/09/04 09:42:53;;;;;;;11.27;4.43;;;;;;;37.65;28.98;99085.97;5093567;28;20016;-47
2023/09/04 09:45:19;;;;;;;8.65;3.35;;;;;;;37.47;27.72;99081.06;5093574;28;20493;-48
2023/09/04 09:47:45;;;;;;;5.93;2.72;;;;;;;37.51;27.20;99079.16;5092499;28;20063;-48
2023/09/04 09:50:15;;;;;;;53.15;7.95;;;;;;;37.80;27.11;99076.00;5093472;28;20051;-48
2023/09/04 09:52:58;;;;;;;12.73;3.65;;;;;;;38.17;25.79;99074.09;5093033;28;20032;-47
2023/09/04 09:55:25;;;;;;;26.35;22.63;;;;;;;37.60;26.54;99075.38;5093310;28;20027;-47
2023/09/04 09:57:53;;;;;;;12.63;6.95;;;;;;;37.57;26.28;99068.66;5093311;28;20027;-48
2023/09/04 10:00:19;;;;;;;21.80;15.05;;;;;;;37.01;26.56;99064.75;5093274;28;20022;-47
2023/09/04 10:02:44;;;;;;;24.20;21.50;;;;;;;37.37;26.82;99066.06;5093501;28;20432;-48
2023/09/04 10:05:10;;;;;;;106.40;85.70;;;;;;;37.37;26.65;99062.53;5093449;28;20034;-48
2023/09/04 10:07:38;;;;;;;28.83;26.17;;;;;;;38.19;25.99;99053.72;5091860;28;20024;-47
2023/09/04 10:10:05;;;;;;;26.92;10.00;;;;;;;38.74;25.01;99043.63;5093194;28;20103;-48
2023/09/04 10:12:50;;;;;;;61.45;54.80;;;;;;;39.79;24.43;99042.22;5093146;28;20515;-48
2023/09/04 10:15:22;;;;;;;19.90;13.50;;;;;;;39.83;23.59;99036.75;5092759;28;20044;-48
2023/09/04 10:18:14;;;;;;;4.47;2.45;;;;;;;39.73;23.47;99039.06;5093090;28;20573;-48
2023/09/04 10:20:41;;;;;;;19.23;9.60;;;;;;;40.02;23.25;99038.38;5083192;28;20059;-48
2023/09/04 10:23:11;;;;;;;10.70;7.68;;;;;;;40.69;22.83;99026.63;5092765;28;20089;-48
2023/09/04 10:25:54;;;;;;;5.22;3.50;;;;;;;40.85;22.31;99028.16;5092899;28;20035;-48
2023/09/04 10:28:40;;;;;;;6.25;2.45;;;;;;;40.87;22.68;99020.31;5092841;28;20032;-48
2023/09/04 10:31:06;;;;;;;4.70;2.75;;;;;;;41.31;21.93;99021.78;5092812;28;20028;-48
2023/09/04 10:33:35;;;;;;;6.32;2.20;;;;;;;41.14;21.30;99020.63;5092914;28;20405;-48
2023/09/04 10:36:01;;;;;;;30.35;8.88;;;;;;;41.46;22.29;99017.00;5092626;28;20070;-48
2023/09/04 10:38:27;;;;;;;15.02;5.50;;;;;;;41.67;21.86;99016.13;5092495;28;20123;-48
2023/09/04 10:40:54;;;;;;;36.80;18.33;;;;;;;41.63;21.90;99010.63;5092595;28;20027;-48
2023/09/04 10:43:19;;;;;;;112.88;101.43;;;;;;;42.35;21.08;99004.63;5092681;28;20467;-48
2023/09/04 10:46:05;;;;;;;95.22;78.18;;;;;;;42.45;20.84;99008.50;5091150;28;20050;-48
2023/09/04 10:48:44;;;;;;;12.70;7.50;;;;;;;41.01;21.69;99006.53;5092371;28;20054;-48
2023/09/04 10:51:37;;;;;;;30.45;9.38;;;;;;;39.58;23.45;99003.69;5091010;28;20026;-48
2023/09/04 10:54:26;;;;;;;13.98;6.30;;;;;;;39.16;24.19;99005.88;5092452;28;20031;-48
2023/09/04 10:56:53;;;;;;;23.55;10.18;;;;;;;39.67;23.61;99002.16;5092300;28;20540;-48
2023/09/04 10:59:19;;;;;;;20.60;6.88;;;;;;;39.85;23.34;98996.69;5092237;28;20094;-48
2023/09/04 11:01:45;;;;;;;9.20;3.22;;;;;;;40.15;22.73;98995.56;5090933;28;20059;-48
2023/09/04 11:04:25;;;;;;;17.15;5.90;;;;;;;40.09;22.84;98997.16;5091325;28;20020;-48
2023/09/04 11:07:16;;;;;;;17.45;6.30;;;;;;;40.02;22.96;98991.63;5092404;28;20024;-48
2023/09/04 11:09:42;;;;;;;4.82;4.03;;;;;;;40.53;22.21;98991.25;5092070;28;20145;-48
2023/09/04 11:12:17;;;;;;;6.82;3.17;;;;;;;40.71;21.60;98976.69;5091986;28;20020;-48
2023/09/04 11:14:47;;;;;;;3.80;2.20;;;;;;;40.50;21.86;98969.25;5091861;28;20048;-48
2023/09/04 11:17:16;;;;;;;4.93;2.95;;;;;;;40.19;22.38;98968.88;5091964;28;20114;-48
2023/09/04 11:19:42;;;;;;;7.90;2.97;;;;;;;40.12;22.24;98971.59;5092046;28;20542;-48
2023/09/04 11:22:21;;;;;;;4.07;2.50;;;;;;;40.17;21.71;98965.72;5091839;28;20020;-48
2023/09/04 11:24:47;;;;;;;5.38;2.50;;;;;;;39.99;21.95;98967.69;5090597;28;20069;-47
2023/09/04 11:27:13;;;;;;;4.57;2.40;;;;;;;39.93;21.72;98965.31;5090517;28;20028;-48
2023/09/04 11:29:38;;;;;;;11.45;5.18;;;;;;;39.46;22.66;98960.88;5091914;28;20427;-48